createdAt,value
2018-07-19T00:00:56.762Z,6.03
2018-07-19T00:03:24.641Z,5.97
2018-07-19T00:05:52.547Z,5.77
2018-07-19T00:08:20.429Z,5.60
2018-07-19T00:10:48.330Z,6.23
2018-07-19T00:13:16.301Z,5.80
2018-07-19T00:15:44.188Z,6.00
2018-07-19T00:18:12.134Z,5.50
2018-07-19T00:20:40.059Z,5.83
2018-07-19T00:23:07.931Z,5.67
2018-07-19T00:25:35.757Z,5.40
2018-07-19T00:28:03.659Z,5.80
2018-07-19T00:30:31.588Z,5.57
2018-07-19T00:32:59.469Z,5.70
2018-07-19T00:35:27.363Z,5.63
2018-07-19T00:37:55.270Z,5.73
2018-07-19T00:40:23.221Z,5.73
2018-07-19T00:42:51.146Z,5.97
2018-07-19T00:45:19.029Z,6.03
2018-07-19T00:47:46.899Z,5.50
2018-07-19T00:50:14.785Z,6.23
2018-07-19T00:52:42.638Z,6.03
2018-07-19T00:55:11.367Z,5.53
2018-07-19T00:57:39.270Z,6.03
2018-07-19T01:00:07.239Z,5.30
2018-07-19T01:02:35.151Z,5.90
2018-07-19T01:05:03.058Z,5.70
2018-07-19T01:07:30.942Z,5.30
2018-07-19T01:09:58.814Z,5.57
2018-07-19T01:12:26.710Z,5.83
2018-07-19T01:14:54.598Z,5.63
2018-07-19T01:17:22.489Z,5.93
2018-07-19T01:19:50.439Z,5.10
2018-07-19T01:22:18.316Z,5.40
2018-07-19T01:24:46.194Z,6.03
2018-07-19T01:27:14.070Z,5.60
2018-07-19T01:29:41.946Z,6.03
2018-07-19T01:32:09.832Z,5.70
2018-07-19T01:34:37.711Z,6.03
2018-07-19T01:37:05.600Z,5.60
2018-07-19T01:39:33.534Z,5.63
2018-07-19T01:42:22.382Z,5.80
2018-07-19T01:44:50.229Z,5.47
2018-07-19T01:47:18.196Z,5.43
2018-07-19T01:49:46.561Z,5.33
2018-07-19T01:52:14.560Z,5.80
2018-07-19T01:54:42.449Z,5.97
2018-07-19T01:57:11.567Z,5.40
2018-07-19T01:59:40.145Z,6.30
2018-07-19T02:02:08.178Z,6.13
2018-07-19T02:04:36.067Z,5.80
2018-07-19T02:07:04.042Z,6.03
2018-07-19T02:09:32.006Z,5.50
2018-07-19T02:12:00.206Z,6.03
2018-07-19T02:14:28.154Z,6.27
2018-07-19T02:16:56.064Z,6.27
2018-07-19T02:19:23.903Z,6.27
2018-07-19T02:21:51.778Z,6.20
2018-07-19T02:24:19.641Z,6.43
2018-07-19T02:26:47.749Z,6.13
2018-07-19T02:29:15.613Z,6.03
2018-07-19T02:31:43.453Z,6.03
2018-07-19T02:34:11.314Z,6.70
2018-07-19T02:36:39.149Z,6.20
2018-07-19T02:39:10.602Z,6.13
2018-07-19T02:41:38.897Z,6.13
2018-07-19T02:44:07.990Z,5.93
2018-07-19T02:46:36.582Z,6.10
2018-07-19T02:49:04.454Z,5.97
2018-07-19T02:51:32.358Z,6.40
2018-07-19T02:54:00.274Z,6.00
2018-07-19T02:56:28.133Z,6.27
2018-07-19T02:58:56.018Z,6.17
2018-07-19T03:01:23.860Z,5.50
2018-07-19T03:03:51.734Z,5.40
2018-07-19T03:06:19.602Z,4.77
2018-07-19T03:08:47.869Z,5.17
2018-07-19T03:11:15.755Z,5.23
2018-07-19T03:13:43.577Z,5.43
2018-07-19T03:16:11.490Z,5.30
2018-07-19T03:18:39.325Z,5.00
2018-07-19T03:21:07.193Z,5.40
2018-07-19T03:23:35.085Z,5.90
2018-07-19T03:26:02.964Z,5.40
2018-07-19T03:28:30.874Z,5.27
2018-07-19T03:30:58.736Z,5.33
2018-07-19T03:33:26.573Z,5.63
2018-07-19T03:35:54.413Z,4.80
2018-07-19T03:38:22.251Z,5.00
2018-07-19T03:40:50.189Z,5.53
2018-07-19T03:43:18.078Z,5.03
2018-07-19T03:45:45.927Z,5.63
2018-07-19T03:48:13.890Z,5.50
2018-07-19T03:50:41.794Z,5.80
2018-07-19T03:53:09.666Z,5.43
2018-07-19T03:55:37.506Z,5.10
2018-07-19T03:58:05.473Z,5.53
2018-07-19T04:00:33.389Z,5.27
2018-07-19T04:03:01.316Z,4.93
2018-07-19T04:05:29.199Z,6.00
2018-07-19T04:07:57.091Z,5.23
2018-07-19T04:10:24.925Z,5.43
2018-07-19T04:12:52.821Z,5.40
2018-07-19T04:15:20.691Z,6.17
2018-07-19T04:17:54.209Z,5.23
2018-07-19T04:20:23.269Z,5.27
2018-07-19T04:22:51.466Z,4.77
2018-07-19T04:25:19.361Z,4.93
2018-07-19T04:27:47.278Z,4.70
2018-07-19T04:30:15.149Z,5.37
2018-07-19T04:32:43.098Z,4.90
2018-07-19T04:35:10.948Z,4.83
2018-07-19T04:37:38.815Z,4.73
2018-07-19T04:40:06.737Z,5.13
2018-07-19T04:42:34.913Z,5.87
2018-07-19T04:45:03.265Z,4.83
2018-07-19T04:47:31.114Z,4.63
2018-07-19T04:49:58.981Z,4.83
2018-07-19T04:52:26.829Z,5.30
2018-07-19T04:54:54.703Z,5.07
2018-07-19T04:57:22.801Z,5.30
2018-07-19T04:59:50.632Z,5.80
2018-07-19T05:02:18.614Z,6.23
2018-07-19T05:04:46.473Z,4.87
2018-07-19T05:07:14.334Z,5.00
2018-07-19T05:09:42.218Z,4.83
2018-07-19T05:12:10.370Z,4.80
2018-07-19T05:14:38.221Z,5.23
2018-07-19T05:17:06.065Z,4.67
2018-07-19T05:19:34.226Z,4.23
2018-07-19T05:22:02.129Z,4.30
2018-07-19T05:24:30.060Z,4.33
2018-07-19T05:26:57.934Z,4.13
2018-07-19T05:29:25.828Z,4.20
2018-07-19T05:31:53.695Z,4.23
2018-07-19T05:34:21.591Z,3.87
2018-07-19T05:36:49.602Z,4.07
2018-07-19T05:39:17.469Z,3.77
2018-07-19T05:41:45.337Z,3.80
2018-07-19T05:44:13.221Z,4.30
2018-07-19T05:46:41.238Z,4.33
2018-07-19T05:49:09.131Z,4.90
2018-07-19T05:51:37.051Z,4.37
2018-07-19T05:54:05.159Z,4.27
2018-07-19T05:56:33.034Z,5.30
2018-07-19T05:59:00.894Z,5.70
2018-07-19T06:01:28.824Z,4.60
2018-07-19T06:03:56.776Z,4.50
2018-07-19T06:06:24.634Z,4.77
2018-07-19T06:08:52.571Z,4.67
2018-07-19T06:11:20.461Z,5.00
2018-07-19T06:13:48.660Z,4.57
2018-07-19T06:16:17.289Z,4.97
2018-07-19T06:18:45.275Z,4.90
2018-07-19T06:21:13.075Z,4.77
2018-07-19T06:23:40.938Z,4.50
2018-07-19T06:26:08.813Z,4.83
2018-07-19T06:28:36.695Z,4.57
2018-07-19T06:31:04.587Z,4.50
2018-07-19T06:33:32.522Z,4.57
2018-07-19T06:36:00.409Z,4.67
2018-07-19T06:38:28.249Z,5.03
2018-07-19T06:40:56.129Z,4.80
2018-07-19T06:43:24.106Z,4.57
2018-07-19T06:45:52.053Z,4.60
2018-07-19T06:48:19.912Z,4.60
2018-07-19T06:50:47.790Z,4.40
2018-07-19T06:53:15.653Z,4.60
2018-07-19T06:55:43.523Z,4.57
2018-07-19T06:58:11.484Z,4.63
2018-07-19T07:00:39.353Z,4.57
2018-07-19T07:03:07.243Z,4.40
2018-07-19T07:05:35.277Z,4.40
2018-07-19T07:08:03.227Z,4.43
2018-07-19T07:10:31.169Z,4.30
2018-07-19T07:12:59.034Z,4.60
2018-07-19T07:15:26.945Z,4.20
2018-07-19T07:17:54.845Z,4.07
2018-07-19T07:20:22.745Z,4.07
2018-07-19T07:22:50.761Z,4.30
2018-07-19T07:25:18.642Z,3.87
2018-07-19T07:27:46.558Z,4.00
2018-07-19T07:30:14.428Z,4.07
2018-07-19T07:32:42.353Z,4.10
2018-07-19T07:35:10.358Z,3.80
2018-07-19T07:37:38.545Z,4.03
2018-07-19T07:40:06.613Z,3.63
2018-07-19T07:42:34.558Z,3.47
2018-07-19T07:45:02.520Z,3.60
2018-07-19T07:47:30.486Z,3.77
2018-07-19T07:49:58.371Z,3.70
2018-07-19T07:52:26.633Z,4.00
2018-07-19T07:54:54.497Z,3.80
2018-07-19T07:57:22.689Z,3.80
2018-07-19T07:59:50.766Z,4.20
2018-07-19T08:02:18.636Z,3.90
2018-07-19T08:04:46.499Z,3.90
2018-07-19T08:07:14.375Z,3.83
2018-07-19T08:09:42.257Z,3.23
2018-07-19T08:12:10.163Z,3.07
2018-07-19T08:14:38.049Z,3.43
2018-07-19T08:17:06.014Z,3.07
2018-07-19T08:19:33.862Z,3.23
2018-07-19T08:22:01.749Z,2.87
2018-07-19T08:24:29.713Z,2.50
2018-07-19T08:26:57.655Z,2.70
2018-07-19T08:29:25.586Z,2.97
2018-07-19T08:31:53.459Z,3.47
2018-07-19T08:34:21.737Z,3.23
2018-07-19T08:36:49.597Z,3.10
2018-07-19T08:39:17.570Z,3.00
2018-07-19T08:41:45.523Z,2.80
2018-07-19T08:44:13.436Z,2.97
2018-07-19T08:46:41.345Z,3.10
2018-07-19T08:49:09.443Z,3.10
2018-07-19T08:51:37.613Z,3.00
2018-07-19T08:54:05.606Z,2.93
2018-07-19T08:56:33.598Z,3.00
2018-07-19T08:59:01.471Z,2.77
2018-07-19T09:01:29.428Z,2.70
2018-07-19T09:03:57.380Z,3.30
2018-07-19T09:06:25.242Z,3.03
2018-07-19T09:08:53.119Z,3.30
2018-07-19T09:11:20.988Z,3.50
2018-07-19T09:13:49.275Z,3.00
2018-07-19T09:16:17.236Z,3.20
2018-07-19T09:18:45.119Z,3.80
2018-07-19T09:21:13.017Z,3.40
2018-07-19T09:23:40.961Z,3.00
2018-07-19T09:26:09.203Z,3.37
2018-07-19T09:28:37.117Z,3.40
2018-07-19T09:31:05.189Z,3.67
2018-07-19T09:33:33.106Z,3.33
2018-07-19T09:36:01.791Z,3.10
2018-07-19T09:38:29.713Z,3.00
2018-07-19T09:40:57.609Z,2.97
2018-07-19T09:43:25.937Z,3.13
2018-07-19T09:45:53.783Z,3.00
2018-07-19T09:48:21.682Z,2.53
2018-07-19T09:50:49.899Z,2.70
2018-07-19T09:53:17.885Z,2.50
2018-07-19T09:55:45.784Z,2.70
2018-07-19T09:58:13.653Z,2.40
2018-07-19T10:00:47.059Z,2.80
2018-07-19T10:03:14.992Z,2.27
2018-07-19T10:05:42.901Z,2.10
2018-07-19T10:08:10.810Z,2.30
2018-07-19T10:10:38.752Z,2.00
2018-07-19T10:13:06.670Z,1.87
2018-07-19T10:15:34.587Z,2.03
2018-07-19T10:20:35.899Z,2.10
2018-07-19T10:23:03.889Z,2.27
2018-07-19T10:25:31.811Z,2.20
2018-07-19T10:27:59.641Z,2.10
2018-07-19T10:30:27.562Z,2.00
2018-07-19T10:32:55.463Z,2.10
2018-07-19T10:35:23.390Z,2.10
2018-07-19T10:37:51.274Z,2.37
2018-07-19T10:40:19.159Z,1.90
2018-07-19T10:42:47.011Z,2.00
2018-07-19T10:45:14.877Z,1.80
2018-07-19T10:47:42.840Z,1.93
2018-07-19T10:50:10.754Z,2.10
2018-07-19T10:52:38.646Z,1.77
2018-07-19T10:55:06.520Z,2.00
2018-07-19T10:57:34.462Z,1.90
2018-07-19T11:00:02.334Z,1.93
2018-07-19T11:02:30.214Z,1.80
2018-07-19T11:04:58.082Z,1.97
2018-07-19T11:07:25.985Z,2.00
2018-07-19T11:09:53.852Z,2.00
2018-07-19T11:12:21.823Z,2.00
2018-07-19T11:14:49.779Z,1.80
2018-07-19T11:17:17.691Z,1.90
2018-07-19T11:19:45.555Z,2.13
2018-07-19T11:22:13.434Z,2.10
2018-07-19T11:24:41.321Z,2.03
2018-07-19T11:27:09.319Z,1.70
2018-07-19T11:29:37.228Z,1.97
2018-07-19T11:32:05.178Z,2.00
2018-07-19T11:34:33.068Z,2.10
2018-07-19T11:37:00.902Z,2.30
2018-07-19T11:39:29.038Z,1.93
2018-07-19T11:41:56.945Z,1.80
2018-07-19T11:44:24.862Z,2.10
2018-07-19T11:46:52.802Z,2.30
2018-07-19T11:49:20.725Z,2.07
2018-07-19T11:51:49.057Z,2.17
2018-07-19T11:54:16.948Z,2.30
2018-07-19T11:56:44.853Z,2.30
2018-07-19T11:59:12.779Z,2.33
2018-07-19T12:01:40.657Z,2.40
2018-07-19T12:04:08.593Z,2.47
2018-07-19T12:06:36.441Z,2.30
2018-07-19T12:09:07.290Z,3.10
2018-07-19T12:11:35.193Z,2.30
2018-07-19T12:14:03.825Z,2.90
2018-07-19T12:16:31.690Z,2.60
2018-07-19T12:19:00.669Z,2.20
2018-07-19T12:21:28.620Z,2.40
2018-07-19T12:23:56.720Z,2.60
2018-07-19T12:26:24.558Z,2.40
2018-07-19T12:28:52.893Z,2.50
2018-07-19T12:31:20.867Z,2.60
2018-07-19T12:33:48.954Z,2.27
2018-07-19T12:36:16.881Z,2.43
2018-07-19T12:38:44.755Z,2.40
2018-07-19T12:41:12.633Z,2.20
2018-07-19T12:43:40.521Z,2.40
2018-07-19T12:46:08.719Z,2.40
2018-07-19T12:48:36.598Z,2.77
2018-07-19T12:51:04.824Z,2.70
2018-07-19T12:53:32.752Z,2.60
2018-07-19T12:56:00.624Z,2.90
2018-07-19T12:58:28.553Z,2.57
2018-07-19T13:00:56.384Z,2.40
2018-07-19T13:03:24.221Z,2.57
2018-07-19T13:05:52.102Z,2.37
2018-07-19T13:08:20.015Z,2.87
2018-07-19T13:10:47.938Z,2.60
2018-07-19T13:13:15.777Z,2.57
2018-07-19T13:15:43.651Z,2.67
2018-07-19T13:18:11.489Z,2.70
2018-07-19T13:20:39.322Z,2.80
2018-07-19T13:23:07.215Z,2.97
2018-07-19T13:25:35.034Z,2.80
2018-07-19T13:28:02.900Z,2.93
2018-07-19T13:30:30.771Z,2.80
2018-07-19T13:32:58.630Z,3.60
2018-07-19T13:35:26.553Z,3.50
2018-07-19T13:37:54.416Z,3.47
2018-07-19T13:40:23.194Z,3.60
2018-07-19T13:42:51.303Z,3.63
2018-07-19T13:45:19.234Z,4.00
2018-07-19T13:47:47.113Z,3.70
2018-07-19T13:50:14.950Z,3.47
2018-07-19T13:52:53.931Z,3.80
2018-07-19T13:55:21.773Z,3.80
2018-07-19T13:57:49.606Z,4.10
2018-07-19T14:00:17.839Z,4.13
2018-07-19T14:02:46.852Z,3.90
2018-07-19T14:05:14.731Z,3.97
2018-07-19T14:07:42.617Z,3.80
2018-07-19T14:10:10.573Z,4.40
2018-07-19T14:12:38.413Z,3.93
2018-07-19T14:15:06.319Z,4.00
2018-07-19T14:17:34.203Z,3.53
2018-07-19T14:20:02.182Z,3.50
2018-07-19T14:22:30.073Z,4.03
2018-07-19T14:24:57.932Z,4.23
2018-07-19T14:27:25.839Z,4.67
2018-07-19T14:29:53.796Z,4.43
2018-07-19T14:32:22.006Z,5.00
2018-07-19T14:34:49.865Z,5.80
2018-07-19T14:37:17.737Z,5.40
2018-07-19T14:39:46.005Z,6.70
2018-07-19T14:42:13.882Z,7.03
2018-07-19T14:44:41.768Z,7.57
2018-07-19T14:47:09.630Z,7.80
2018-07-19T14:49:37.576Z,7.60
2018-07-19T14:52:05.802Z,7.43
2018-07-19T14:54:33.682Z,7.00
2018-07-19T14:57:01.566Z,5.80
2018-07-19T14:59:29.437Z,6.53
2018-07-19T15:01:57.321Z,6.00
2018-07-19T15:04:25.190Z,5.33
2018-07-19T15:06:53.086Z,4.90
2018-07-19T15:09:21.224Z,4.53
2018-07-19T15:11:49.099Z,5.00
2018-07-19T15:14:16.991Z,4.10
2018-07-19T15:16:44.829Z,4.47
2018-07-19T15:19:12.674Z,4.80
2018-07-19T15:21:40.899Z,4.37
2018-07-19T15:24:08.747Z,3.90
2018-07-19T15:26:36.696Z,5.00
2018-07-19T15:29:04.853Z,6.10
2018-07-19T15:31:32.697Z,5.47
2018-07-19T15:34:00.758Z,5.23
2018-07-19T15:36:28.589Z,5.27
2018-07-19T15:38:56.413Z,5.33
2018-07-19T15:41:24.293Z,5.00
2018-07-19T15:43:52.117Z,4.73
2018-07-19T15:46:19.926Z,5.47
2018-07-19T15:48:47.757Z,4.47
2018-07-19T15:51:15.610Z,4.50
2018-07-19T15:53:43.449Z,4.80
2018-07-19T15:56:11.280Z,5.23
2018-07-19T15:58:39.155Z,4.60
2018-07-19T16:01:06.966Z,4.67
2018-07-19T16:03:34.790Z,4.00
2018-07-19T16:06:02.721Z,4.03
2018-07-19T16:08:30.679Z,3.87
2018-07-19T16:10:58.544Z,4.20
2018-07-19T16:13:26.446Z,3.77
2018-07-19T16:15:54.316Z,3.80
2018-07-19T16:18:22.277Z,6.13
2018-07-19T16:20:50.155Z,23.50
2018-07-19T16:23:18.076Z,22.20
2018-07-19T16:25:45.984Z,5.30
2018-07-19T16:28:13.900Z,26.33
2018-07-19T16:30:41.790Z,5.50
2018-07-19T16:33:09.701Z,5.40
2018-07-19T16:35:37.565Z,7.10
2018-07-19T16:38:05.588Z,10.87
2018-07-19T16:40:33.526Z,21.70
2018-07-19T16:43:01.452Z,4.57
2018-07-19T16:45:29.316Z,4.60
2018-07-19T16:47:57.205Z,5.17
2018-07-19T16:50:25.066Z,4.00
2018-07-19T16:52:52.982Z,4.33
2018-07-19T16:55:20.935Z,4.50
2018-07-19T16:57:48.812Z,4.50
2018-07-19T17:00:16.629Z,4.30
2018-07-19T17:02:44.538Z,3.77
2018-07-19T17:05:12.393Z,3.60
2018-07-19T17:07:40.721Z,4.10
2018-07-19T17:10:08.717Z,4.03
2018-07-19T17:12:36.701Z,4.40
2018-07-19T17:15:05.113Z,3.60
2018-07-19T17:17:33.050Z,3.97
2018-07-19T17:20:00.925Z,4.80
2018-07-19T17:22:28.798Z,5.23
2018-07-19T17:24:56.677Z,4.27
2018-07-19T17:27:24.574Z,4.30
2018-07-19T17:29:52.490Z,4.40
2018-07-19T17:32:20.418Z,4.50
2018-07-19T17:34:48.286Z,4.50
2018-07-19T17:37:16.174Z,4.43
2018-07-19T17:39:44.145Z,4.90
2018-07-19T17:42:12.030Z,4.50
2018-07-19T17:44:39.928Z,4.13
2018-07-19T17:47:07.825Z,5.73
2018-07-19T17:49:35.739Z,4.30
2018-07-19T17:52:03.687Z,4.90
2018-07-19T17:54:31.581Z,4.93
2018-07-19T17:56:59.435Z,5.20
2018-07-19T17:59:27.325Z,5.37
2018-07-19T18:01:55.215Z,5.20
2018-07-19T18:04:23.117Z,5.53
2018-07-19T18:06:51.022Z,6.77
2018-07-19T18:09:18.913Z,6.63
2018-07-19T18:11:46.755Z,6.90
2018-07-19T18:14:14.617Z,6.97
2018-07-19T18:16:42.570Z,6.70
2018-07-19T18:19:10.424Z,7.27
2018-07-19T18:21:38.287Z,7.33
2018-07-19T18:24:06.165Z,7.13
2018-07-19T18:26:34.109Z,7.60
2018-07-19T18:29:01.957Z,7.97
2018-07-19T18:31:30.173Z,7.93
2018-07-19T18:33:58.030Z,7.60
2018-07-19T18:36:25.873Z,8.37
2018-07-19T18:38:53.830Z,8.57
2018-07-19T18:41:21.718Z,8.43
2018-07-19T18:43:49.598Z,8.63
2018-07-19T18:46:17.514Z,8.77
2018-07-19T18:48:45.417Z,9.30
2018-07-19T18:51:13.354Z,9.43
2018-07-19T18:53:41.198Z,8.70
2018-07-19T18:56:09.079Z,8.77
2018-07-19T18:58:36.938Z,9.47
2018-07-19T19:01:04.877Z,7.80
2018-07-19T19:03:32.741Z,8.47
2018-07-19T19:06:00.611Z,7.87
2018-07-19T19:08:28.436Z,7.63
2018-07-19T19:10:56.269Z,7.57
2018-07-19T19:13:24.310Z,7.93
2018-07-19T19:15:52.193Z,7.17
2018-07-19T19:18:20.173Z,7.00
2018-07-19T19:20:49.300Z,7.56
2018-07-19T19:23:17.392Z,7.17
2018-07-19T19:25:45.330Z,6.93
2018-07-19T19:28:13.173Z,7.00
2018-07-19T19:30:41.055Z,7.43
2018-07-19T19:33:09.036Z,7.57
2018-07-19T19:35:36.980Z,7.57
2018-07-19T19:38:05.317Z,7.50
2018-07-19T19:40:33.225Z,7.10
2018-07-19T19:43:01.136Z,7.50
2018-07-19T19:45:29.052Z,8.00
2018-07-19T19:47:57.962Z,7.20
2018-07-19T19:50:25.808Z,7.17
2018-07-19T19:52:53.716Z,7.57
2018-07-19T19:55:21.642Z,8.03
2018-07-19T19:57:49.553Z,8.97
2018-07-19T20:00:17.452Z,7.70
2018-07-19T20:02:45.401Z,7.90
2018-07-19T20:05:13.273Z,8.77
2018-07-19T20:07:41.201Z,8.77
2018-07-19T20:10:09.075Z,8.97
2018-07-19T20:12:37.029Z,9.60
2018-07-19T20:15:05.216Z,8.90
2018-07-19T20:17:33.106Z,8.73
2018-07-19T20:20:01.033Z,8.97
2018-07-19T20:22:28.950Z,9.60
2018-07-19T20:24:56.877Z,9.97
2018-07-19T20:27:24.808Z,9.33
2018-07-19T20:29:52.668Z,9.23
2018-07-19T20:32:20.616Z,8.37
2018-07-19T20:34:48.489Z,9.40
2018-07-19T20:37:16.373Z,8.90
2018-07-19T20:39:44.342Z,8.50
2018-07-19T20:42:12.208Z,7.83
2018-07-19T20:44:40.085Z,7.43
2018-07-19T20:47:08.008Z,8.27
2018-07-19T20:49:35.873Z,8.70
2018-07-19T20:52:03.802Z,10.43
2018-07-19T20:54:31.626Z,9.13
2018-07-19T20:56:59.454Z,10.77
2018-07-19T20:59:27.272Z,11.97
2018-07-19T21:01:55.089Z,10.13
2018-07-19T21:04:22.957Z,11.83
2018-07-19T21:06:50.793Z,11.37
2018-07-19T21:09:18.617Z,11.70
2018-07-19T21:11:46.438Z,12.17
2018-07-19T21:14:20.982Z,10.33
2018-07-19T21:16:48.850Z,9.70
2018-07-19T21:19:16.682Z,9.83
2018-07-19T21:21:44.511Z,9.70
2018-07-19T21:24:12.333Z,9.87
2018-07-19T21:26:40.289Z,9.37
2018-07-19T21:29:08.121Z,9.60
2018-07-19T21:31:35.968Z,9.30
2018-07-19T21:34:03.833Z,10.50
2018-07-19T21:36:31.666Z,10.13
2018-07-19T21:38:59.483Z,10.40
2018-07-19T21:41:27.325Z,11.03
2018-07-19T21:43:55.566Z,9.97
2018-07-19T21:46:23.404Z,10.53
2018-07-19T21:48:51.246Z,10.27
2018-07-19T21:51:19.069Z,8.60
2018-07-19T21:53:46.925Z,10.10
2018-07-19T21:58:48.122Z,9.40
2018-07-19T22:01:15.933Z,10.60
2018-07-19T22:03:43.717Z,8.80
2018-07-19T22:06:11.577Z,9.37
2018-07-19T22:08:39.393Z,9.70
2018-07-19T22:11:07.279Z,8.87
2018-07-19T22:13:35.154Z,9.30
2018-07-19T22:16:03.026Z,8.63
2018-07-19T22:18:30.869Z,9.00
2018-07-19T22:20:58.726Z,8.00
2018-07-19T22:23:30.318Z,9.40
2018-07-19T22:25:58.570Z,9.47
2018-07-19T22:28:26.412Z,8.50
2018-07-19T22:30:54.258Z,8.77
2018-07-19T22:33:22.109Z,8.90
2018-07-19T22:35:50.034Z,8.87
2018-07-19T22:38:17.883Z,8.67
2018-07-19T22:40:45.717Z,8.50
2018-07-19T22:43:13.573Z,8.93
2018-07-19T22:45:41.439Z,8.50
2018-07-19T22:48:09.300Z,8.43
2018-07-19T22:50:37.136Z,8.97
2018-07-19T22:53:04.993Z,8.73
2018-07-19T22:55:32.838Z,9.90
2018-07-19T22:58:00.662Z,8.90
2018-07-19T23:00:28.469Z,9.00
2018-07-19T23:02:56.341Z,8.63
2018-07-19T23:05:24.189Z,9.23
2018-07-19T23:07:52.030Z,8.63
2018-07-19T23:10:19.917Z,9.27
2018-07-19T23:12:47.730Z,9.90
2018-07-19T23:15:15.549Z,9.17
2018-07-19T23:17:43.338Z,10.27
2018-07-19T23:20:11.179Z,10.80
2018-07-19T23:22:39.033Z,10.40
2018-07-19T23:25:06.818Z,10.00
2018-07-19T23:27:34.725Z,10.27
2018-07-19T23:30:02.648Z,10.43
2018-07-19T23:32:30.565Z,10.30
2018-07-19T23:34:58.519Z,10.43
2018-07-19T23:37:30.897Z,10.60
2018-07-19T23:40:01.634Z,11.17
2018-07-19T23:42:47.346Z,11.07
2018-07-19T23:45:24.598Z,11.87
2018-07-19T23:47:53.082Z,11.03
2018-07-19T23:50:20.916Z,11.00
2018-07-19T23:52:48.782Z,11.90
2018-07-19T23:55:16.649Z,11.60
2018-07-19T23:57:44.647Z,12.27
